createdAt,value
2018-05-21T00:00:48.647Z,38.60
2018-05-21T00:03:17.134Z,38.30
2018-05-21T00:05:45.469Z,38.00
2018-05-21T00:08:13.985Z,38.00
2018-05-21T00:10:42.443Z,38.40
2018-05-21T00:13:10.932Z,39.10
2018-05-21T00:15:40.139Z,38.70
2018-05-21T00:18:09.370Z,38.60
2018-05-21T00:20:37.694Z,38.60
2018-05-21T00:23:06.027Z,38.80
2018-05-21T00:25:34.609Z,38.60
2018-05-21T00:28:03.292Z,38.80
2018-05-21T00:30:31.702Z,38.90
2018-05-21T00:32:59.993Z,38.80
2018-05-21T00:35:28.419Z,39.40
2018-05-21T00:37:57.148Z,39.50
2018-05-21T00:40:25.560Z,39.40
2018-05-21T00:42:54.774Z,39.40
2018-05-21T00:45:23.075Z,39.40
2018-05-21T00:47:51.617Z,39.00
2018-05-21T00:50:20.837Z,39.20
2018-05-21T00:52:49.268Z,39.20
2018-05-21T00:55:35.482Z,39.50
2018-05-21T00:58:04.701Z,40.30
2018-05-21T01:00:32.997Z,39.40
2018-05-21T01:03:01.363Z,40.20
2018-05-21T01:05:29.664Z,40.10
2018-05-21T01:07:58.059Z,40.10
2018-05-21T01:10:26.370Z,39.80
2018-05-21T01:12:55.947Z,40.10
2018-05-21T01:15:24.504Z,40.10
2018-05-21T01:17:53.084Z,40.00
2018-05-21T01:20:21.591Z,40.10
2018-05-21T01:22:50.015Z,40.00
2018-05-21T01:25:18.408Z,40.00
2018-05-21T01:27:46.757Z,40.10
2018-05-21T01:30:15.928Z,40.10
2018-05-21T01:32:44.409Z,40.00
2018-05-21T01:35:12.915Z,40.00
2018-05-21T01:37:41.315Z,40.00
2018-05-21T01:40:09.906Z,39.90
2018-05-21T01:42:38.275Z,39.90
2018-05-21T01:45:07.367Z,40.50
2018-05-21T01:47:36.457Z,40.70
2018-05-21T01:50:05.563Z,40.80
2018-05-21T01:52:34.653Z,40.80
2018-05-21T01:55:05.018Z,41.10
2018-05-21T01:57:33.395Z,41.10
2018-05-21T02:00:01.850Z,41.20
2018-05-21T02:02:30.435Z,41.20
2018-05-21T02:04:58.873Z,41.40
2018-05-21T02:07:28.192Z,41.40
2018-05-21T02:09:57.348Z,42.10
2018-05-21T02:12:25.673Z,42.00
2018-05-21T02:14:54.938Z,41.50
2018-05-21T02:17:23.279Z,42.20
2018-05-21T02:19:51.691Z,42.00
2018-05-21T02:22:20.115Z,41.80
2018-05-21T02:24:49.418Z,42.00
2018-05-21T02:27:17.871Z,42.10
2018-05-21T02:29:46.319Z,42.20
2018-05-21T02:32:14.690Z,42.20
2018-05-21T02:34:43.163Z,41.70
2018-05-21T02:37:11.596Z,41.90
2018-05-21T02:39:40.093Z,41.80
2018-05-21T02:42:08.923Z,42.30
2018-05-21T02:44:37.553Z,41.80
2018-05-21T02:47:06.763Z,42.00
2018-05-21T02:49:36.105Z,41.90
2018-05-21T02:52:04.443Z,41.90
2018-05-21T02:54:33.573Z,41.60
2018-05-21T02:57:02.022Z,41.50
2018-05-21T02:59:31.129Z,42.00
2018-05-21T03:01:59.443Z,41.90
2018-05-21T03:04:28.094Z,42.10
2018-05-21T03:06:56.625Z,41.40
2018-05-21T03:09:25.145Z,41.40
2018-05-21T03:11:53.579Z,41.90
2018-05-21T03:14:22.378Z,41.80
2018-05-21T03:16:51.017Z,41.90
2018-05-21T03:19:19.767Z,41.40
2018-05-21T03:21:48.167Z,42.10
2018-05-21T03:24:16.528Z,42.00
2018-05-21T03:26:45.769Z,41.90
2018-05-21T03:29:14.990Z,41.90
2018-05-21T03:31:43.276Z,41.80
2018-05-21T03:34:11.615Z,41.70
2018-05-21T03:36:40.090Z,41.10
2018-05-21T03:39:08.738Z,42.00
2018-05-21T03:41:37.969Z,42.60
2018-05-21T03:44:06.334Z,42.50
2018-05-21T03:46:35.479Z,42.50
2018-05-21T03:49:03.913Z,42.50
2018-05-21T03:51:33.131Z,42.90
2018-05-21T03:54:01.618Z,42.80
2018-05-21T03:56:30.316Z,42.20
2018-05-21T03:59:16.214Z,42.80
2018-05-21T04:02:02.496Z,42.50
2018-05-21T04:04:30.928Z,42.50
2018-05-21T04:06:59.319Z,42.10
2018-05-21T04:09:27.805Z,42.50
2018-05-21T04:11:56.171Z,42.10
2018-05-21T04:14:25.367Z,42.40
2018-05-21T04:16:54.485Z,42.20
2018-05-21T04:19:22.785Z,42.20
2018-05-21T04:21:51.370Z,42.00
2018-05-21T04:24:19.795Z,41.80
2018-05-21T04:26:48.674Z,41.60
2018-05-21T04:29:17.715Z,41.60
2018-05-21T04:31:46.093Z,42.70
2018-05-21T04:34:14.476Z,42.40
2018-05-21T04:36:42.920Z,42.60
2018-05-21T04:39:11.416Z,42.90
2018-05-21T04:41:40.564Z,42.20
2018-05-21T04:44:08.930Z,42.00
2018-05-21T04:46:37.255Z,41.80
2018-05-21T04:49:05.581Z,42.40
2018-05-21T04:51:34.044Z,42.50
2018-05-21T04:54:02.445Z,42.10
2018-05-21T04:56:30.794Z,41.90
2018-05-21T04:58:59.599Z,41.80
2018-05-21T05:01:27.914Z,41.60
2018-05-21T05:03:56.439Z,41.50
2018-05-21T05:06:25.055Z,42.10
2018-05-21T05:08:53.515Z,41.40
2018-05-21T05:11:21.830Z,41.30
2018-05-21T05:13:50.445Z,41.00
2018-05-21T05:16:19.945Z,41.50
2018-05-21T05:18:48.349Z,41.40
2018-05-21T05:21:16.808Z,40.70
2018-05-21T05:23:45.159Z,40.50
2018-05-21T05:26:13.615Z,40.90
2018-05-21T05:28:42.185Z,40.60
2018-05-21T05:31:10.535Z,40.90
2018-05-21T05:33:39.007Z,40.70
2018-05-21T05:36:08.139Z,40.70
2018-05-21T05:38:36.524Z,40.50
2018-05-21T05:41:04.984Z,40.90
2018-05-21T05:43:34.243Z,40.80
2018-05-21T05:46:02.909Z,40.80
2018-05-21T05:48:31.288Z,40.50
2018-05-21T05:50:59.625Z,40.60
2018-05-21T05:53:28.070Z,40.30
2018-05-21T05:55:56.614Z,40.80
2018-05-21T05:58:25.131Z,40.70
2018-05-21T06:00:53.658Z,40.80
2018-05-21T06:03:22.144Z,40.90
2018-05-21T06:05:50.461Z,41.00
2018-05-21T06:08:18.911Z,41.30
2018-05-21T06:10:47.259Z,41.40
2018-05-21T06:13:16.441Z,41.20
2018-05-21T06:15:45.531Z,41.30
2018-05-21T06:18:13.990Z,41.30
2018-05-21T06:20:42.324Z,40.80
2018-05-21T06:23:10.643Z,40.70
2018-05-21T06:25:38.984Z,40.90
2018-05-21T06:28:07.319Z,40.70
2018-05-21T06:30:35.680Z,40.90
2018-05-21T06:33:04.175Z,41.00
2018-05-21T06:35:32.823Z,41.00
2018-05-21T06:38:01.155Z,41.20
2018-05-21T06:40:30.290Z,41.40
2018-05-21T06:42:58.705Z,41.20
2018-05-21T06:45:27.211Z,40.90
2018-05-21T06:47:56.404Z,41.20
2018-05-21T06:50:25.500Z,41.40
2018-05-21T06:52:54.223Z,41.40
2018-05-21T06:55:22.671Z,41.00
2018-05-21T06:57:51.045Z,41.30
2018-05-21T07:00:19.374Z,41.70
2018-05-21T07:02:47.741Z,41.50
2018-05-21T07:05:16.170Z,41.60
2018-05-21T07:07:44.561Z,41.90
2018-05-21T07:10:13.904Z,42.30
2018-05-21T07:12:42.225Z,42.30
2018-05-21T07:15:13.279Z,41.80
2018-05-21T07:17:43.599Z,41.50
2018-05-21T07:20:12.147Z,41.40
2018-05-21T07:22:40.516Z,41.60
2018-05-21T07:25:08.854Z,41.60
2018-05-21T07:27:38.064Z,41.60
2018-05-21T07:30:06.715Z,41.50
2018-05-21T07:32:35.178Z,41.60
2018-05-21T07:35:03.535Z,41.40
2018-05-21T07:37:31.890Z,41.40
2018-05-21T07:40:00.399Z,41.40
2018-05-21T07:42:29.126Z,41.80
2018-05-21T07:44:58.247Z,42.40
2018-05-21T07:47:27.342Z,41.90
2018-05-21T07:49:57.664Z,42.00
2018-05-21T07:52:28.105Z,41.80
2018-05-21T07:54:56.493Z,41.60
2018-05-21T07:57:24.876Z,41.80
2018-05-21T07:59:53.358Z,42.10
2018-05-21T08:02:21.778Z,41.80
2018-05-21T08:04:50.125Z,40.90
2018-05-21T08:07:18.464Z,40.80
2018-05-21T08:09:47.357Z,41.40
2018-05-21T08:12:16.466Z,41.60
2018-05-21T08:14:44.967Z,41.50
2018-05-21T08:17:13.220Z,41.40
2018-05-21T08:19:41.659Z,41.50
2018-05-21T08:22:11.015Z,41.20
2018-05-21T08:24:39.196Z,41.10
2018-05-21T08:27:07.657Z,40.80
2018-05-21T08:29:36.196Z,41.20
2018-05-21T08:32:04.767Z,40.90
2018-05-21T08:34:33.410Z,40.20
2018-05-21T08:37:02.040Z,40.90
2018-05-21T08:39:30.383Z,40.50
2018-05-21T08:41:58.706Z,40.20
2018-05-21T08:44:28.089Z,40.90
2018-05-21T08:46:56.580Z,40.90
2018-05-21T08:49:25.901Z,40.50
2018-05-21T08:51:55.007Z,39.80
2018-05-21T08:54:24.190Z,39.60
2018-05-21T08:56:54.496Z,39.70
2018-05-21T08:59:22.973Z,39.70
2018-05-21T09:01:52.069Z,39.70
2018-05-21T09:04:22.051Z,39.00
2018-05-21T09:06:50.409Z,39.00
2018-05-21T09:09:18.976Z,38.70
2018-05-21T09:11:48.401Z,38.50
2018-05-21T09:14:16.802Z,38.50
2018-05-21T09:16:45.301Z,38.50
2018-05-21T09:19:13.819Z,38.30
2018-05-21T09:21:43.111Z,38.50
2018-05-21T09:24:12.465Z,38.10
2018-05-21T09:26:40.834Z,38.10
2018-05-21T09:29:09.196Z,38.00
2018-05-21T09:31:37.587Z,37.30
2018-05-21T09:34:06.290Z,37.90
2018-05-21T09:36:34.669Z,37.00
2018-05-21T09:39:03.030Z,37.10
2018-05-21T09:41:31.397Z,37.10
2018-05-21T09:43:59.884Z,38.10
2018-05-21T09:46:28.769Z,38.20
2018-05-21T09:48:57.161Z,36.90
2018-05-21T09:51:25.645Z,36.60
2018-05-21T09:53:54.184Z,37.60
2018-05-21T09:56:23.350Z,37.80
2018-05-21T09:58:51.750Z,37.70
2018-05-21T10:01:21.320Z,37.50
2018-05-21T10:03:49.783Z,37.30
2018-05-21T10:06:18.386Z,37.40
2018-05-21T10:08:46.925Z,37.30
2018-05-21T10:11:16.087Z,36.90
2018-05-21T10:13:44.595Z,36.90
2018-05-21T10:16:13.871Z,37.00
2018-05-21T10:18:42.462Z,37.00
2018-05-21T10:21:10.915Z,37.40
2018-05-21T10:23:39.227Z,37.20
2018-05-21T10:26:08.501Z,37.00
2018-05-21T10:28:37.685Z,37.00
2018-05-21T10:31:06.227Z,37.00
2018-05-21T10:33:35.483Z,36.30
2018-05-21T10:36:04.202Z,36.40
2018-05-21T10:38:33.418Z,35.90
2018-05-21T10:41:01.751Z,35.80
2018-05-21T10:43:30.196Z,35.80
2018-05-21T10:45:59.459Z,35.90
2018-05-21T10:48:28.796Z,35.70
2018-05-21T10:50:57.161Z,35.60
2018-05-21T10:53:25.856Z,35.60
2018-05-21T10:55:54.255Z,35.80
2018-05-21T10:58:22.637Z,34.90
2018-05-21T11:00:51.068Z,34.70
2018-05-21T11:03:19.417Z,34.40
2018-05-21T11:05:47.877Z,33.80
2018-05-21T11:08:16.233Z,34.00
2018-05-21T11:10:44.630Z,34.00
2018-05-21T11:13:13.337Z,30.90
2018-05-21T11:15:41.931Z,30.10
2018-05-21T11:18:10.453Z,31.10
2018-05-21T11:20:38.878Z,32.00
2018-05-21T11:23:07.327Z,28.20
2018-05-21T11:25:35.856Z,29.00
2018-05-21T11:28:04.151Z,30.00
2018-05-21T11:30:34.242Z,29.30
2018-05-21T11:33:04.116Z,28.80
2018-05-21T11:35:32.553Z,28.80
2018-05-21T11:38:01.132Z,28.60
2018-05-21T11:40:29.465Z,30.00
2018-05-21T11:42:57.964Z,30.50
2018-05-21T11:45:26.602Z,31.20
2018-05-21T11:47:55.013Z,30.00
2018-05-21T11:50:23.397Z,29.10
2018-05-21T11:52:51.738Z,27.90
2018-05-21T11:55:20.152Z,28.00
2018-05-21T11:57:48.586Z,29.60
2018-05-21T12:00:18.004Z,29.40
2018-05-21T12:02:46.880Z,29.40
2018-05-21T12:05:17.470Z,29.70
2018-05-21T12:07:46.046Z,29.70
2018-05-21T12:10:14.270Z,29.50
2018-05-21T12:12:42.643Z,30.20
2018-05-21T12:15:11.806Z,30.50
2018-05-21T12:17:40.547Z,30.40
2018-05-21T12:20:08.982Z,29.80
2018-05-21T12:22:38.104Z,30.10
2018-05-21T12:25:07.389Z,29.90
2018-05-21T12:27:36.592Z,30.00
2018-05-21T12:30:05.867Z,30.00
2018-05-21T12:32:34.216Z,30.00
2018-05-21T12:35:02.563Z,29.60
2018-05-21T12:37:30.947Z,29.60
2018-05-21T12:39:59.433Z,29.50
2018-05-21T12:42:28.108Z,28.80
2018-05-21T12:44:56.434Z,28.20
2018-05-21T12:47:25.078Z,28.80
2018-05-21T12:49:53.676Z,29.00
2018-05-21T12:52:22.031Z,28.90
2018-05-21T12:54:51.244Z,29.00
2018-05-21T12:57:19.718Z,29.00
2018-05-21T12:59:48.092Z,28.30
2018-05-21T13:02:16.538Z,28.80
2018-05-21T13:04:45.122Z,29.00
2018-05-21T13:07:13.751Z,27.90
2018-05-21T13:09:42.492Z,28.40
2018-05-21T13:12:10.953Z,28.50
2018-05-21T13:14:39.321Z,29.00
2018-05-21T13:17:07.733Z,28.90
2018-05-21T13:19:36.382Z,28.60
2018-05-21T13:22:04.853Z,29.10
2018-05-21T13:24:33.201Z,28.60
2018-05-21T13:27:01.736Z,28.50
2018-05-21T13:29:30.702Z,28.60
2018-05-21T13:31:59.117Z,28.20
2018-05-21T13:34:28.363Z,27.40
2018-05-21T13:36:58.809Z,27.30
2018-05-21T13:39:27.246Z,27.30
2018-05-21T13:41:56.467Z,27.20
2018-05-21T13:44:24.836Z,27.10
2018-05-21T13:46:53.243Z,27.10
2018-05-21T13:49:21.578Z,27.00
2018-05-21T13:51:50.828Z,26.30
2018-05-21T13:54:19.405Z,26.30
2018-05-21T13:56:47.939Z,26.60
2018-05-21T13:59:17.287Z,26.70
2018-05-21T14:01:45.735Z,26.20
2018-05-21T14:04:14.878Z,26.10
2018-05-21T14:06:43.253Z,26.10
2018-05-21T14:09:11.617Z,25.30
2018-05-21T14:11:40.079Z,25.20
2018-05-21T14:14:08.829Z,25.30
2018-05-21T14:16:37.343Z,25.30
2018-05-21T14:19:06.017Z,24.70
2018-05-21T14:21:34.475Z,25.60
2018-05-21T14:24:03.291Z,25.30
2018-05-21T14:26:31.781Z,25.40
2018-05-21T14:29:00.255Z,25.40
2018-05-21T14:31:28.938Z,25.20
2018-05-21T14:33:57.437Z,25.40
2018-05-21T14:36:25.842Z,25.50
2018-05-21T14:38:54.317Z,25.40
2018-05-21T14:41:22.787Z,25.80
2018-05-21T14:43:51.201Z,25.80
2018-05-21T14:46:19.838Z,25.10
2018-05-21T14:48:48.207Z,25.70
2018-05-21T14:51:16.712Z,25.50
2018-05-21T14:53:45.252Z,25.80
2018-05-21T14:56:14.567Z,25.10
2018-05-21T14:58:43.138Z,25.10
2018-05-21T15:01:11.518Z,25.30
2018-05-21T15:03:40.619Z,24.80
2018-05-21T15:06:08.970Z,24.90
2018-05-21T15:08:37.398Z,25.00
2018-05-21T15:11:05.774Z,25.00
2018-05-21T15:13:34.290Z,25.20
2018-05-21T15:16:02.644Z,25.10
2018-05-21T15:18:31.018Z,24.80
2018-05-21T15:20:59.400Z,24.60
2018-05-21T15:23:27.772Z,24.50
2018-05-21T15:25:56.257Z,24.40
2018-05-21T15:28:24.712Z,24.40
2018-05-21T15:30:53.338Z,24.60
2018-05-21T15:33:21.718Z,24.60
2018-05-21T15:35:50.358Z,24.80
2018-05-21T15:38:18.955Z,24.70
2018-05-21T15:40:47.323Z,24.40
2018-05-21T15:43:15.836Z,24.30
2018-05-21T15:45:44.214Z,24.30
2018-05-21T15:48:12.559Z,24.00
2018-05-21T15:50:41.903Z,23.80
2018-05-21T15:53:10.252Z,23.80
2018-05-21T15:55:38.618Z,24.20
2018-05-21T15:58:07.323Z,24.20
2018-05-21T16:00:35.881Z,24.50
2018-05-21T16:03:04.312Z,24.10
2018-05-21T16:05:32.697Z,24.30
2018-05-21T16:08:01.107Z,24.40
2018-05-21T16:10:29.538Z,24.40
2018-05-21T16:12:57.989Z,24.70
2018-05-21T16:15:26.445Z,24.90
2018-05-21T16:17:54.959Z,24.80
2018-05-21T16:20:23.306Z,24.90
2018-05-21T16:22:51.745Z,25.40
2018-05-21T16:25:20.099Z,25.10
2018-05-21T16:27:48.860Z,24.40
2018-05-21T16:30:17.287Z,24.70
2018-05-21T16:32:46.577Z,24.80
2018-05-21T16:35:14.928Z,24.70
2018-05-21T16:37:44.543Z,24.50
2018-05-21T16:40:12.997Z,24.30
2018-05-21T16:42:41.402Z,24.30
2018-05-21T16:45:10.205Z,24.40
2018-05-21T16:47:38.672Z,24.30
2018-05-21T16:50:07.072Z,24.20
2018-05-21T16:52:36.273Z,23.40
2018-05-21T16:55:05.416Z,23.00
2018-05-21T16:57:33.940Z,23.00
2018-05-21T17:00:02.384Z,22.70
2018-05-21T17:02:30.943Z,23.00
2018-05-21T17:05:00.147Z,23.00
2018-05-21T17:07:29.564Z,22.60
2018-05-21T17:09:57.994Z,22.80
2018-05-21T17:12:26.422Z,23.50
2018-05-21T17:14:57.549Z,22.80
2018-05-21T17:17:27.719Z,23.10
2018-05-21T17:19:58.585Z,23.20
2018-05-21T17:22:27.186Z,23.30
2018-05-21T17:24:55.568Z,23.40
2018-05-21T17:27:24.054Z,23.40
2018-05-21T17:29:52.584Z,23.70
2018-05-21T17:34:57.829Z,23.50
2018-05-21T17:37:26.979Z,24.30
2018-05-21T17:39:55.383Z,24.30
2018-05-21T17:42:24.155Z,23.80
2018-05-21T17:44:52.484Z,24.10
2018-05-21T17:47:20.882Z,24.60
2018-05-21T17:49:49.753Z,25.00
2018-05-21T17:52:18.221Z,25.60
2018-05-21T17:54:47.474Z,25.90
2018-05-21T17:57:16.012Z,26.00
2018-05-21T17:59:44.741Z,26.00
2018-05-21T18:02:13.142Z,25.90
2018-05-21T18:04:41.582Z,26.40
2018-05-21T18:07:10.062Z,26.60
2018-05-21T18:09:38.434Z,27.00
2018-05-21T18:12:07.215Z,27.00
2018-05-21T18:14:35.781Z,27.40
2018-05-21T18:17:04.991Z,27.70
2018-05-21T18:19:33.317Z,27.70
2018-05-21T18:22:01.837Z,27.90
2018-05-21T18:24:32.100Z,27.80
2018-05-21T18:27:00.547Z,27.80
2018-05-21T18:29:28.938Z,27.50
2018-05-21T18:31:57.324Z,28.40
2018-05-21T18:34:25.982Z,27.90
2018-05-21T18:36:54.539Z,28.20
2018-05-21T18:39:23.683Z,27.90
2018-05-21T18:41:52.049Z,27.90
2018-05-21T18:44:20.414Z,27.70
2018-05-21T18:46:49.764Z,27.90
2018-05-21T18:49:18.919Z,28.80
2018-05-21T18:51:47.325Z,28.30
2018-05-21T18:54:15.914Z,28.40
2018-05-21T18:56:45.775Z,28.60
2018-05-21T18:59:14.474Z,28.50
2018-05-21T19:01:42.944Z,28.20
2018-05-21T19:04:11.397Z,28.30
2018-05-21T19:06:40.002Z,28.90
2018-05-21T19:09:08.495Z,29.00
2018-05-21T19:11:36.898Z,28.90
2018-05-21T19:14:05.328Z,29.70
2018-05-21T19:16:33.680Z,29.40
2018-05-21T19:19:03.208Z,29.70
2018-05-21T19:21:31.602Z,29.70
2018-05-21T19:23:59.958Z,29.70
2018-05-21T19:26:28.349Z,29.80
2018-05-21T19:28:57.875Z,29.80
2018-05-21T19:31:26.315Z,30.00
2018-05-21T19:33:54.695Z,30.00
2018-05-21T19:36:23.073Z,30.00
2018-05-21T19:38:51.698Z,30.00
2018-05-21T19:41:20.358Z,30.00
2018-05-21T19:43:48.730Z,30.10
2018-05-21T19:46:17.216Z,30.80
2018-05-21T19:48:45.598Z,31.20
2018-05-21T19:51:14.010Z,31.60
2018-05-21T19:53:42.470Z,31.20
2018-05-21T19:56:11.612Z,31.40
2018-05-21T19:58:40.081Z,31.50
2018-05-21T20:01:08.435Z,31.90
2018-05-21T20:03:37.170Z,31.70
2018-05-21T20:06:05.758Z,31.20
2018-05-21T20:08:34.143Z,31.40
2018-05-21T20:11:02.516Z,31.70
2018-05-21T20:13:30.963Z,31.90
2018-05-21T20:16:00.383Z,32.10
2018-05-21T20:18:35.029Z,32.10
2018-05-21T20:21:03.412Z,32.30
2018-05-21T20:23:31.810Z,32.40
2018-05-21T20:26:00.205Z,32.50
2018-05-21T20:28:28.689Z,32.50
2018-05-21T20:30:57.986Z,32.70
2018-05-21T20:33:27.244Z,33.00
2018-05-21T20:35:55.747Z,33.00
2018-05-21T20:38:24.208Z,32.90
2018-05-21T20:40:52.655Z,33.10
2018-05-21T20:43:21.180Z,33.20
2018-05-21T20:45:49.739Z,33.20
2018-05-21T20:48:18.321Z,33.40
2018-05-21T20:50:46.808Z,33.60
2018-05-21T20:53:15.388Z,33.60
2018-05-21T20:55:43.887Z,33.60
2018-05-21T20:58:12.628Z,33.60
2018-05-21T21:00:41.083Z,33.60
2018-05-21T21:03:09.564Z,33.80
2018-05-21T21:05:37.982Z,33.80
2018-05-21T21:08:07.513Z,33.80
2018-05-21T21:10:36.037Z,33.90
2018-05-21T21:13:05.213Z,34.10
2018-05-21T21:15:33.600Z,34.00
2018-05-21T21:18:02.161Z,34.00
2018-05-21T21:20:30.892Z,34.30
2018-05-21T21:23:00.079Z,34.40
2018-05-21T21:25:29.236Z,34.40
2018-05-21T21:27:57.593Z,34.40
2018-05-21T21:30:25.992Z,34.40
2018-05-21T21:32:54.399Z,34.40
2018-05-21T21:35:22.915Z,34.40
2018-05-21T21:37:51.280Z,34.50
2018-05-21T21:40:21.594Z,34.70
2018-05-21T21:42:50.844Z,34.70
2018-05-21T21:45:19.480Z,34.70
2018-05-21T21:47:48.618Z,34.90
2018-05-21T21:50:17.186Z,34.90
2018-05-21T21:52:45.744Z,35.10
2018-05-21T21:55:14.959Z,35.40
2018-05-21T21:57:43.308Z,35.30
2018-05-21T22:00:12.416Z,35.50
2018-05-21T22:02:41.520Z,35.70
2018-05-21T22:05:10.779Z,35.60
2018-05-21T22:07:39.236Z,35.50
2018-05-21T22:10:07.700Z,35.90
2018-05-21T22:12:36.123Z,35.70
2018-05-21T22:15:07.238Z,36.20
2018-05-21T22:17:35.584Z,36.00
2018-05-21T22:20:04.760Z,36.20
2018-05-21T22:22:33.311Z,36.20
2018-05-21T22:25:01.779Z,36.50
2018-05-21T22:27:30.175Z,36.40
2018-05-21T22:29:58.597Z,36.60
2018-05-21T22:32:27.790Z,36.80
2018-05-21T22:34:56.894Z,36.80
2018-05-21T22:37:25.297Z,36.70
2018-05-21T22:39:53.779Z,37.10
2018-05-21T22:42:22.350Z,37.10
2018-05-21T22:44:50.666Z,37.00
2018-05-21T22:47:18.988Z,37.30
2018-05-21T22:49:48.300Z,37.10
2018-05-21T22:52:16.794Z,37.00
2018-05-21T22:54:45.509Z,37.00
2018-05-21T22:57:13.870Z,36.90
2018-05-21T22:59:42.390Z,37.10
2018-05-21T23:02:10.828Z,37.30
2018-05-21T23:04:39.327Z,37.20
2018-05-21T23:07:07.743Z,37.40
2018-05-21T23:09:36.146Z,37.50
2018-05-21T23:12:04.569Z,37.40
2018-05-21T23:14:33.349Z,37.70
2018-05-21T23:17:02.578Z,37.70
2018-05-21T23:19:31.739Z,37.60
2018-05-21T23:22:00.204Z,37.60
2018-05-21T23:24:28.495Z,37.50
2018-05-21T23:26:56.866Z,37.70
2018-05-21T23:29:25.165Z,37.50
2018-05-21T23:31:53.518Z,37.60
2018-05-21T23:34:21.844Z,37.80
2018-05-21T23:36:50.338Z,37.90
2018-05-21T23:39:18.697Z,37.80
2018-05-21T23:41:47.837Z,37.80
2018-05-21T23:44:18.144Z,37.90
2018-05-21T23:46:47.448Z,37.80
2018-05-21T23:49:16.584Z,37.90
2018-05-21T23:51:44.864Z,37.90
2018-05-21T23:54:13.204Z,37.90
2018-05-21T23:56:42.383Z,38.30
2018-05-21T23:59:11.519Z,38.40
